Grand Forks International Airport
KGFK : rendu visible

Aérodrome :











RETROUVEZ-NOUS SUR...

 
LOGIN :

S'inscrire | Disclaimer

   EN    FR    IT 

 









Légende :    VFR   VFR Marginal   IFR   IFR Intensif   IFR Très Intensif
Visi : 
Plafond : 
>= 8 km
>= 3000ft
5 à 8 km
1000 à 3000 ft
1500m à 5 km
500 à 1000 ft
800 à 1500m
200 à 500 ft
< 800m
< 200 ft
Symboles :   Orages  Brouillard  Fortes neiges  Fortes précipitations  Vent > 20 kt






- Altitude de l'aérodrome : 845 ft
- Code IATA : GFK


KGFK - Grand Forks International

DERNIER METAR :
  • 162253Z COR 28007KT 10SM FEW040 SCT170 BKN250 05/01 A2982 RMK AO2 SLP108 FROPA T00500006

METARs EXPIRÉS :
  • 162153Z 20009KT 10SM SCT170 OVC250 04/01 A2980 RMK AO2 SLP101 T00440006
  • 162053Z 20013KT 10SM SCT150 BKN200 06/01 A2978 RMK AO2 SLP095 T00610006 56005

TAF KGFK
Valide du 16 à 22h jusqu'au 17 à 18h UTC


162200Z 1622/1718 20009KT P6SM SCT170 OVC250
FM162300 27015G23KT P6SM BKN150 OVC250
FM170100 28014KT P6SM BKN030
FM170400 28012KT P6SM BKN024
FM171100 32011KT P6SM BKN022



MET'MAP, la Météo Aéronautique d'un coup d'oeil ! - Copyright ORBIFLY Décembre 2007 - Disclaimer

ORBIFLY MET'MAP TEAM :

Programmation & Développement : Alexandra Zaïnal
Conception & Développement : Baudouin d'Aumeries
Co-Programmation & Développement : Marc-Olivier Méhu
Soutien technique & logistique : Manuel Goepfert

Contact : metmap@orbifly.com




SOURCES & CREDITS :

   NOAA       Earth
Advisory